createdAt,value
2023-04-29T00:00:52.188Z,24.49
2023-04-29T00:01:52.238Z,24.51
2023-04-29T00:02:52.339Z,24.48
2023-04-29T00:03:52.413Z,24.49
2023-04-29T00:04:52.437Z,24.49
2023-04-29T00:05:52.645Z,24.51
2023-04-29T00:06:52.205Z,24.48
2023-04-29T00:07:52.204Z,24.51
2023-04-29T00:08:52.235Z,24.51
2023-04-29T00:09:52.376Z,24.51
2023-04-29T00:10:52.494Z,24.51
2023-04-29T00:11:52.278Z,24.49
2023-04-29T00:12:52.262Z,24.49
2023-04-29T00:13:52.295Z,24.49
2023-04-29T00:14:52.292Z,24.49
2023-04-29T00:15:52.296Z,24.49
2023-04-29T00:16:52.349Z,24.49
2023-04-29T00:17:52.342Z,24.49
2023-04-29T00:18:52.312Z,24.48
2023-04-29T00:19:52.537Z,24.48
2023-04-29T00:20:52.517Z,24.48
2023-04-29T00:21:52.321Z,24.48
2023-04-29T00:22:52.345Z,24.46
2023-04-29T00:23:52.360Z,24.48
2023-04-29T00:24:52.356Z,24.48
2023-04-29T00:25:52.350Z,24.49
2023-04-29T00:26:52.374Z,24.46
2023-04-29T00:27:52.378Z,24.46
2023-04-29T00:28:52.364Z,24.46
2023-04-29T00:29:52.624Z,24.48
2023-04-29T00:30:52.439Z,24.49
2023-04-29T00:31:52.430Z,24.46
2023-04-29T00:32:52.447Z,24.46
2023-04-29T00:33:52.430Z,24.46
2023-04-29T00:34:52.433Z,24.46
2023-04-29T00:35:52.555Z,24.49
2023-04-29T00:36:52.408Z,24.46
2023-04-29T00:37:52.393Z,24.46
2023-04-29T00:38:52.404Z,24.46
2023-04-29T00:39:52.701Z,24.48
2023-04-29T00:40:52.435Z,24.46
2023-04-29T00:41:52.531Z,24.45
2023-04-29T00:42:52.511Z,24.48
2023-04-29T00:43:52.470Z,24.45
2023-04-29T00:44:52.497Z,24.48
2023-04-29T00:45:52.583Z,24.46
2023-04-29T00:46:52.474Z,24.48
2023-04-29T00:47:52.556Z,24.46
2023-04-29T00:48:52.497Z,24.46
2023-04-29T00:49:52.698Z,24.46
2023-04-29T00:50:52.992Z,24.43
2023-04-29T00:51:52.528Z,24.48
2023-04-29T00:52:52.548Z,24.46
2023-04-29T00:53:52.546Z,24.48
2023-04-29T00:54:52.534Z,24.46
2023-04-29T00:55:52.548Z,24.45
2023-04-29T00:56:52.551Z,24.45
2023-04-29T00:57:52.610Z,24.48
2023-04-29T00:58:52.595Z,24.43
2023-04-29T00:59:52.855Z,24.45
2023-04-29T01:00:53.455Z,24.43
2023-04-29T01:01:52.762Z,24.46
2023-04-29T01:02:52.735Z,24.45
2023-04-29T01:03:52.749Z,24.45
2023-04-29T01:04:52.659Z,24.46
2023-04-29T01:05:52.613Z,24.45
2023-04-29T01:06:52.649Z,24.46
2023-04-29T01:07:52.642Z,24.48
2023-04-29T01:08:52.613Z,24.45
2023-04-29T01:09:52.958Z,24.45
2023-04-29T01:10:52.623Z,24.46
2023-04-29T01:11:52.590Z,24.45
2023-04-29T01:12:52.642Z,24.43
2023-04-29T01:13:52.661Z,24.43
2023-04-29T01:14:52.645Z,24.42
2023-04-29T01:15:52.717Z,24.43
2023-04-29T01:16:52.659Z,24.40
2023-04-29T01:17:52.706Z,24.43
2023-04-29T01:18:52.644Z,24.46
2023-04-29T01:19:52.974Z,24.40
2023-04-29T01:20:52.665Z,24.40
2023-04-29T01:21:52.748Z,24.43
2023-04-29T01:22:52.670Z,24.43
2023-04-29T01:23:52.687Z,24.45
2023-04-29T01:24:52.696Z,24.43
2023-04-29T01:25:52.657Z,24.42
2023-04-29T01:26:52.704Z,24.43
2023-04-29T01:27:52.690Z,24.42
2023-04-29T01:28:52.671Z,24.42
2023-04-29T01:29:53.072Z,24.43
2023-04-29T01:30:52.680Z,24.45
2023-04-29T01:31:52.840Z,24.43
2023-04-29T01:32:52.746Z,24.43
2023-04-29T01:33:52.778Z,24.40
2023-04-29T01:34:52.737Z,24.42
2023-04-29T01:35:52.733Z,24.42
2023-04-29T01:36:52.803Z,24.40
2023-04-29T01:37:52.770Z,24.43
2023-04-29T01:38:52.738Z,24.42
2023-04-29T01:39:53.015Z,24.43
2023-04-29T01:40:52.755Z,24.42
2023-04-29T01:41:52.762Z,24.45
2023-04-29T01:42:52.765Z,24.43
2023-04-29T01:43:52.772Z,24.40
2023-04-29T01:44:52.762Z,24.42
2023-04-29T01:45:52.791Z,24.43
2023-04-29T01:46:52.901Z,24.43
2023-04-29T01:47:52.898Z,24.40
2023-04-29T01:48:52.834Z,24.40
2023-04-29T01:49:53.093Z,24.42
2023-04-29T01:50:52.831Z,24.42
2023-04-29T01:51:52.864Z,24.42
2023-04-29T01:52:52.868Z,24.40
2023-04-29T01:53:52.838Z,24.40
2023-04-29T01:54:52.903Z,24.40
2023-04-29T01:55:52.898Z,24.42
2023-04-29T01:56:52.878Z,24.42
2023-04-29T01:57:52.877Z,24.43
2023-04-29T01:58:52.958Z,24.43
2023-04-29T01:59:53.132Z,24.40
2023-04-29T02:00:52.978Z,24.40
2023-04-29T02:01:52.920Z,24.40
2023-04-29T02:02:53.004Z,24.40
2023-04-29T02:03:53.321Z,24.39
2023-04-29T02:04:53.018Z,24.42
2023-04-29T02:05:52.954Z,24.39
2023-04-29T02:06:52.962Z,24.39
2023-04-29T02:07:52.936Z,24.40
2023-04-29T02:08:52.926Z,24.42
2023-04-29T02:09:53.155Z,24.42
2023-04-29T02:10:52.956Z,24.40
2023-04-29T02:11:52.960Z,24.39
2023-04-29T02:12:52.976Z,24.40
2023-04-29T02:13:52.978Z,24.39
2023-04-29T02:14:52.997Z,24.39
2023-04-29T02:15:53.013Z,24.38
2023-04-29T02:16:52.990Z,24.39
2023-04-29T02:17:53.038Z,24.40
2023-04-29T02:18:53.009Z,24.39
2023-04-29T02:19:53.227Z,24.40
2023-04-29T02:20:53.039Z,24.40
2023-04-29T02:21:53.022Z,24.38
2023-04-29T02:22:53.036Z,24.40
2023-04-29T02:23:53.075Z,24.40
2023-04-29T02:24:53.026Z,24.39
2023-04-29T02:25:53.059Z,24.39
2023-04-29T02:26:53.085Z,24.40
2023-04-29T02:27:53.069Z,24.39
2023-04-29T02:28:53.098Z,24.40
2023-04-29T02:29:53.224Z,24.39
2023-04-29T02:30:53.093Z,24.39
2023-04-29T02:31:53.094Z,24.39
2023-04-29T02:32:53.179Z,24.39
2023-04-29T02:33:53.129Z,24.39
2023-04-29T02:34:53.139Z,24.36
2023-04-29T02:35:53.133Z,24.38
2023-04-29T02:36:53.196Z,24.39
2023-04-29T02:37:53.212Z,24.38
2023-04-29T02:38:53.156Z,24.38
2023-04-29T02:39:53.430Z,24.38
2023-04-29T02:40:53.182Z,24.36
2023-04-29T02:41:53.197Z,24.36
2023-04-29T02:42:53.172Z,24.36
2023-04-29T02:43:53.219Z,24.38
2023-04-29T02:44:53.202Z,24.36
2023-04-29T02:45:53.294Z,24.39
2023-04-29T02:46:53.267Z,24.38
2023-04-29T02:47:53.275Z,24.38
2023-04-29T02:48:53.247Z,24.40
2023-04-29T02:49:53.435Z,24.36
2023-04-29T02:50:53.316Z,24.39
2023-04-29T02:51:53.304Z,24.38
2023-04-29T02:52:53.308Z,24.36
2023-04-29T02:53:53.289Z,24.38
2023-04-29T02:54:53.266Z,24.38
2023-04-29T02:55:53.252Z,24.39
2023-04-29T02:56:53.276Z,24.38
2023-04-29T02:57:53.267Z,24.39
2023-04-29T02:58:53.316Z,24.39
2023-04-29T02:59:53.590Z,24.39
2023-04-29T03:00:53.340Z,24.38
2023-04-29T03:01:53.606Z,24.38
2023-04-29T03:02:53.392Z,24.36
2023-04-29T03:03:53.629Z,24.36
2023-04-29T03:04:53.312Z,24.39
2023-04-29T03:05:53.324Z,24.36
2023-04-29T03:06:53.617Z,24.38
2023-04-29T03:07:53.340Z,24.35
2023-04-29T03:08:53.342Z,24.36
2023-04-29T03:09:53.602Z,24.36
2023-04-29T03:10:53.345Z,24.35
2023-04-29T03:11:53.603Z,24.36
2023-04-29T03:12:53.369Z,24.36
2023-04-29T03:13:53.386Z,24.38
2023-04-29T03:14:53.393Z,24.34
2023-04-29T03:15:53.390Z,24.35
2023-04-29T03:16:53.433Z,24.36
2023-04-29T03:17:53.445Z,24.36
2023-04-29T03:18:53.417Z,24.36
2023-04-29T03:19:53.616Z,24.36
2023-04-29T03:20:53.444Z,24.35
2023-04-29T03:21:54.110Z,24.36
2023-04-29T03:22:53.404Z,24.34
2023-04-29T03:23:53.414Z,24.32
2023-04-29T03:24:53.451Z,24.36
2023-04-29T03:25:53.467Z,24.35
2023-04-29T03:26:53.440Z,24.34
2023-04-29T03:27:53.446Z,24.34
2023-04-29T03:28:53.443Z,24.35
2023-04-29T03:29:53.652Z,24.34
2023-04-29T03:30:53.525Z,24.34
2023-04-29T03:31:53.484Z,24.34
2023-04-29T03:32:53.588Z,24.34
2023-04-29T03:33:53.508Z,24.35
2023-04-29T03:34:53.475Z,24.35
2023-04-29T03:35:53.483Z,24.34
2023-04-29T03:36:53.494Z,24.32
2023-04-29T03:37:53.509Z,24.32
2023-04-29T03:38:53.554Z,24.34
2023-04-29T03:39:54.059Z,24.35
2023-04-29T03:40:53.557Z,24.34
2023-04-29T03:41:53.555Z,24.35
2023-04-29T03:42:53.582Z,24.34
2023-04-29T03:43:53.576Z,24.35
2023-04-29T03:44:53.583Z,24.32
2023-04-29T03:45:53.590Z,24.34
2023-04-29T03:46:53.662Z,24.34
2023-04-29T03:47:53.645Z,24.35
2023-04-29T03:48:53.578Z,24.34
2023-04-29T03:49:53.917Z,24.32
2023-04-29T03:50:53.582Z,24.31
2023-04-29T03:51:53.609Z,24.31
2023-04-29T03:52:53.638Z,24.35
2023-04-29T03:53:53.625Z,24.31
2023-04-29T03:54:53.612Z,24.32
2023-04-29T03:55:53.651Z,24.32
2023-04-29T03:56:54.649Z,24.34
2023-04-29T03:57:53.668Z,24.32
2023-04-29T03:58:53.669Z,24.34
2023-04-29T03:59:53.913Z,24.32
2023-04-29T04:00:53.680Z,24.34
2023-04-29T04:01:53.716Z,24.32
2023-04-29T04:02:53.833Z,24.32
2023-04-29T04:03:53.776Z,24.34
2023-04-29T04:04:53.854Z,24.34
2023-04-29T04:05:53.779Z,24.34
2023-04-29T04:06:53.799Z,24.32
2023-04-29T04:07:53.734Z,24.31
2023-04-29T04:08:53.744Z,24.31
2023-04-29T04:09:54.086Z,24.31
2023-04-29T04:10:53.759Z,24.31
2023-04-29T04:11:53.748Z,24.32
2023-04-29T04:12:53.768Z,24.34
2023-04-29T04:13:53.780Z,24.32
2023-04-29T04:14:53.843Z,24.31
2023-04-29T04:15:53.885Z,24.34
2023-04-29T04:16:53.807Z,24.31
2023-04-29T04:17:53.877Z,24.31
2023-04-29T04:18:53.877Z,24.31
2023-04-29T04:19:54.229Z,24.32
2023-04-29T04:20:53.892Z,24.31
2023-04-29T04:21:54.108Z,24.32
2023-04-29T04:22:53.902Z,24.31
2023-04-29T04:23:53.916Z,24.34
2023-04-29T04:24:53.861Z,24.31
2023-04-29T04:25:53.879Z,24.32
2023-04-29T04:26:54.134Z,24.31
2023-04-29T04:27:53.884Z,24.31
2023-04-29T04:28:53.895Z,24.29
2023-04-29T04:29:54.134Z,24.32
2023-04-29T04:30:53.957Z,24.31
2023-04-29T04:31:54.114Z,24.31
2023-04-29T04:32:53.975Z,24.32
2023-04-29T04:33:53.901Z,24.28
2023-04-29T04:34:53.897Z,24.31
2023-04-29T04:35:53.935Z,24.32
2023-04-29T04:36:54.151Z,24.32
2023-04-29T04:37:53.926Z,24.31
2023-04-29T04:38:53.971Z,24.32
2023-04-29T04:39:54.135Z,24.31
2023-04-29T04:40:53.935Z,24.31
2023-04-29T04:41:53.970Z,24.28
2023-04-29T04:42:55.234Z,24.29
2023-04-29T04:43:53.986Z,24.29
2023-04-29T04:44:53.961Z,24.28
2023-04-29T04:45:53.979Z,24.31
2023-04-29T04:46:54.172Z,24.29
2023-04-29T04:47:54.050Z,24.28
2023-04-29T04:48:53.942Z,24.28
2023-04-29T04:49:54.293Z,24.29
2023-04-29T04:50:53.939Z,24.26
2023-04-29T04:51:53.978Z,24.28
2023-04-29T04:52:53.928Z,24.26
2023-04-29T04:53:53.984Z,24.26
2023-04-29T04:54:53.949Z,24.28
2023-04-29T04:55:53.962Z,24.26
2023-04-29T04:56:53.994Z,24.28
2023-04-29T04:57:53.982Z,24.25
2023-04-29T04:58:54.048Z,24.26
2023-04-29T04:59:54.255Z,24.26
2023-04-29T05:00:54.072Z,24.28
2023-04-29T05:01:54.094Z,24.26
2023-04-29T05:02:54.167Z,24.26
2023-04-29T05:03:54.113Z,24.28
2023-04-29T05:04:54.018Z,24.28
2023-04-29T05:05:54.049Z,24.29
2023-04-29T05:06:54.040Z,24.24
2023-04-29T05:07:54.052Z,24.26
2023-04-29T05:08:54.027Z,24.26
2023-04-29T05:09:54.212Z,24.28
2023-04-29T05:10:54.342Z,24.28
2023-04-29T05:11:54.039Z,24.24
2023-04-29T05:12:54.115Z,24.26
2023-04-29T05:13:53.984Z,24.26
2023-04-29T05:14:54.030Z,24.25
2023-04-29T05:15:54.019Z,24.24
2023-04-29T05:16:54.046Z,24.26
2023-04-29T05:17:54.209Z,24.25
2023-04-29T05:18:53.996Z,24.25
2023-04-29T05:19:54.210Z,24.28
2023-04-29T05:20:54.101Z,24.26
2023-04-29T05:21:54.035Z,24.26
2023-04-29T05:22:54.040Z,24.25
2023-04-29T05:23:54.073Z,24.26
2023-04-29T05:24:54.051Z,24.25
2023-04-29T05:25:54.070Z,24.26
2023-04-29T05:26:54.094Z,24.25
2023-04-29T05:27:54.141Z,24.28
2023-04-29T05:28:54.040Z,24.26
2023-04-29T05:29:54.178Z,24.25
2023-04-29T05:30:54.073Z,24.25
2023-04-29T05:31:54.040Z,24.25
2023-04-29T05:32:54.111Z,24.25
2023-04-29T05:33:54.051Z,24.25
2023-04-29T05:34:54.053Z,24.26
2023-04-29T05:35:54.033Z,24.26
2023-04-29T05:36:54.042Z,24.25
2023-04-29T05:37:54.130Z,24.25
2023-04-29T05:38:54.044Z,24.24
2023-04-29T05:39:54.172Z,24.24
2023-04-29T05:40:54.082Z,24.22
2023-04-29T05:41:54.058Z,24.22
2023-04-29T05:42:54.090Z,24.26
2023-04-29T05:43:54.046Z,24.26
2023-04-29T05:44:54.096Z,24.25
2023-04-29T05:45:54.081Z,24.25
2023-04-29T05:46:54.069Z,24.24
2023-04-29T05:47:54.185Z,24.25
2023-04-29T05:48:54.086Z,24.24
2023-04-29T05:49:54.477Z,24.22
2023-04-29T05:50:54.086Z,24.24
2023-04-29T05:51:54.043Z,24.25
2023-04-29T05:52:54.107Z,24.24
2023-04-29T05:53:54.122Z,24.25
2023-04-29T05:54:54.083Z,24.24
2023-04-29T05:55:54.076Z,24.25
2023-04-29T05:56:54.133Z,24.24
2023-04-29T05:57:54.177Z,24.24
2023-04-29T05:58:54.084Z,24.24
2023-04-29T05:59:54.294Z,24.25
2023-04-29T06:00:54.101Z,24.25
2023-04-29T06:01:54.110Z,24.25
2023-04-29T06:02:58.773Z,24.26
2023-04-29T06:03:55.226Z,24.25
2023-04-29T06:04:54.270Z,24.26
2023-04-29T06:05:54.349Z,24.26
2023-04-29T06:06:54.114Z,24.25
2023-04-29T06:07:54.039Z,24.28
2023-04-29T06:08:54.033Z,24.26
2023-04-29T06:09:54.218Z,24.25
2023-04-29T06:10:54.021Z,24.25
2023-04-29T06:11:54.022Z,24.26
2023-04-29T06:12:54.021Z,24.29
2023-04-29T06:13:53.999Z,24.29
2023-04-29T06:14:53.997Z,24.28
2023-04-29T06:15:54.010Z,24.31
2023-04-29T06:16:53.992Z,24.32
2023-04-29T06:17:54.035Z,24.31
2023-04-29T06:18:53.977Z,24.32
2023-04-29T06:19:54.220Z,24.31
2023-04-29T06:20:53.985Z,24.34
2023-04-29T06:21:54.000Z,24.35
2023-04-29T06:22:53.947Z,24.34
2023-04-29T06:23:53.945Z,24.34
2023-04-29T06:24:54.020Z,24.34
2023-04-29T06:25:53.916Z,24.34
2023-04-29T06:26:53.943Z,24.31
2023-04-29T06:27:54.198Z,24.34
2023-04-29T06:28:53.899Z,24.35
2023-04-29T06:29:54.240Z,24.34
2023-04-29T06:30:53.920Z,24.35
2023-04-29T06:31:53.913Z,24.35
2023-04-29T06:32:54.215Z,24.35
2023-04-29T06:33:53.869Z,24.38
2023-04-29T06:34:53.901Z,24.36
2023-04-29T06:35:53.872Z,24.38
2023-04-29T06:36:53.840Z,24.40
2023-04-29T06:37:53.834Z,24.43
2023-04-29T06:38:53.867Z,24.43
2023-04-29T06:39:54.101Z,24.43
2023-04-29T06:40:53.816Z,24.43
2023-04-29T06:41:54.658Z,24.46
2023-04-29T06:42:53.779Z,24.48
2023-04-29T06:43:53.803Z,24.49
2023-04-29T06:44:53.858Z,24.52
2023-04-29T06:45:53.771Z,24.52
2023-04-29T06:46:53.855Z,24.55
2023-04-29T06:47:54.203Z,24.58
2023-04-29T06:48:53.837Z,24.60
2023-04-29T06:49:54.188Z,24.62
2023-04-29T06:50:53.905Z,24.63
2023-04-29T06:51:53.985Z,24.69
2023-04-29T06:52:54.044Z,24.66
2023-04-29T06:53:54.109Z,24.69
2023-04-29T06:54:54.145Z,24.74
2023-04-29T06:55:54.227Z,24.77
2023-04-29T06:56:54.270Z,24.83
2023-04-29T06:57:54.671Z,24.88
2023-04-29T06:58:54.383Z,24.90
2023-04-29T06:59:54.674Z,24.88
2023-04-29T07:00:54.552Z,24.91
2023-04-29T07:01:54.573Z,24.91
2023-04-29T07:02:54.752Z,24.88
2023-04-29T07:03:54.925Z,24.93
2023-04-29T07:04:54.786Z,24.90
2023-04-29T07:05:54.740Z,24.90
2023-04-29T07:06:54.819Z,24.88
2023-04-29T07:07:54.859Z,24.84
2023-04-29T07:08:56.866Z,24.86
2023-04-29T07:09:55.301Z,24.83
2023-04-29T07:10:55.046Z,24.79
2023-04-29T07:11:55.135Z,24.80
2023-04-29T07:12:55.194Z,24.80
2023-04-29T07:13:55.217Z,24.73
2023-04-29T07:14:55.269Z,24.73
2023-04-29T07:15:55.271Z,24.71
2023-04-29T07:16:55.534Z,24.70
2023-04-29T07:17:55.374Z,24.69
2023-04-29T07:18:55.415Z,24.64
2023-04-29T07:19:55.458Z,24.64
2023-04-29T07:20:55.448Z,24.62
2023-04-29T07:21:55.515Z,24.62
2023-04-29T07:22:55.571Z,24.60
2023-04-29T07:23:55.601Z,24.56
2023-04-29T07:24:55.639Z,24.58
2023-04-29T07:25:55.645Z,24.56
2023-04-29T07:26:55.631Z,24.55
2023-04-29T07:27:55.688Z,24.55
2023-04-29T07:28:55.698Z,24.56
2023-04-29T07:29:55.672Z,24.52
2023-04-29T07:30:55.768Z,24.53
2023-04-29T07:31:55.687Z,24.52
2023-04-29T07:32:55.749Z,24.55
2023-04-29T07:33:55.666Z,24.52
2023-04-29T07:34:55.719Z,24.51
2023-04-29T07:35:55.651Z,24.52
2023-04-29T07:36:55.723Z,24.53
2023-04-29T07:37:55.663Z,24.52
2023-04-29T07:38:55.748Z,24.52
2023-04-29T07:39:55.707Z,24.52
2023-04-29T07:40:55.695Z,24.49
2023-04-29T07:41:55.707Z,24.49
2023-04-29T07:42:55.699Z,24.49
2023-04-29T07:43:55.708Z,24.49
2023-04-29T07:44:55.832Z,24.51
2023-04-29T07:45:55.812Z,24.51
2023-04-29T07:46:55.716Z,24.53
2023-04-29T07:47:55.757Z,24.51
2023-04-29T07:48:55.730Z,24.52
2023-04-29T07:49:55.756Z,24.53
2023-04-29T07:50:55.803Z,24.55
2023-04-29T07:51:55.763Z,24.55
2023-04-29T07:52:55.808Z,24.56
2023-04-29T07:53:55.791Z,24.56
2023-04-29T07:54:55.836Z,24.55
2023-04-29T07:55:55.840Z,24.59
2023-04-29T07:56:55.859Z,24.59
2023-04-29T07:57:56.223Z,24.56
2023-04-29T07:58:55.911Z,24.56
2023-04-29T07:59:55.912Z,24.56
2023-04-29T08:00:55.992Z,24.55
2023-04-29T08:01:55.973Z,24.58
2023-04-29T08:02:56.188Z,24.58
2023-04-29T08:03:56.129Z,24.56
2023-04-29T08:04:56.566Z,24.58
2023-04-29T08:05:56.074Z,24.56
2023-04-29T08:06:56.026Z,24.56
2023-04-29T08:07:56.032Z,24.56
2023-04-29T08:08:56.010Z,24.58
2023-04-29T08:09:56.048Z,24.56
2023-04-29T08:10:56.455Z,24.55
2023-04-29T08:11:56.065Z,24.58
2023-04-29T08:12:56.093Z,24.55
2023-04-29T08:13:56.045Z,24.55
2023-04-29T08:14:56.078Z,24.56
2023-04-29T08:15:56.098Z,24.56
2023-04-29T08:16:56.087Z,24.56
2023-04-29T08:17:56.280Z,24.56
2023-04-29T08:18:56.094Z,24.56
2023-04-29T08:19:56.120Z,24.58
2023-04-29T08:20:56.128Z,24.56
2023-04-29T08:21:56.126Z,24.56
2023-04-29T08:22:56.111Z,24.53
2023-04-29T08:23:56.167Z,24.55
2023-04-29T08:24:56.140Z,24.55
2023-04-29T08:25:56.142Z,24.52
2023-04-29T08:26:56.155Z,24.53
2023-04-29T08:27:56.165Z,24.55
2023-04-29T08:28:56.212Z,24.53
2023-04-29T08:29:56.180Z,24.53
2023-04-29T08:30:56.181Z,24.55
2023-04-29T08:31:56.213Z,24.55
2023-04-29T08:32:56.215Z,24.53
2023-04-29T08:33:56.141Z,24.53
2023-04-29T08:34:56.455Z,24.53
2023-04-29T08:35:56.147Z,24.53
2023-04-29T08:36:56.179Z,24.52
2023-04-29T08:37:56.181Z,24.52
2023-04-29T08:38:56.167Z,24.55
2023-04-29T08:39:56.135Z,24.49
2023-04-29T08:40:56.134Z,24.52
2023-04-29T08:41:56.161Z,24.52
2023-04-29T08:42:56.162Z,24.51
2023-04-29T08:43:56.116Z,24.53
2023-04-29T08:44:56.114Z,24.52
2023-04-29T08:45:56.171Z,24.53
2023-04-29T08:46:56.143Z,24.51
2023-04-29T08:47:56.311Z,24.52
2023-04-29T08:48:56.158Z,24.51
2023-04-29T08:49:56.245Z,24.51
2023-04-29T08:50:56.168Z,24.51
2023-04-29T08:51:56.150Z,24.51
2023-04-29T08:52:56.249Z,24.52
2023-04-29T08:53:56.148Z,24.51
2023-04-29T08:54:56.141Z,24.51
2023-04-29T08:55:56.157Z,24.51
2023-04-29T08:56:56.192Z,24.52
2023-04-29T08:57:56.182Z,24.51
2023-04-29T08:58:56.207Z,24.52
2023-04-29T08:59:56.189Z,24.52
2023-04-29T09:00:56.258Z,24.51
2023-04-29T09:01:56.247Z,24.51
2023-04-29T09:02:56.292Z,24.49
2023-04-29T09:03:56.439Z,24.51
2023-04-29T09:04:56.514Z,24.51
2023-04-29T09:05:56.304Z,24.52
2023-04-29T09:06:56.254Z,24.49
2023-04-29T09:07:56.734Z,24.52
2023-04-29T09:08:56.249Z,24.49
2023-04-29T09:09:56.255Z,24.48
2023-04-29T09:10:56.279Z,24.49
2023-04-29T09:11:56.260Z,24.49
2023-04-29T09:12:56.777Z,24.49
2023-04-29T09:13:56.308Z,24.49
2023-04-29T09:14:57.647Z,24.52
2023-04-29T09:15:56.368Z,24.51
2023-04-29T09:16:56.329Z,24.52
2023-04-29T09:17:56.305Z,24.49
2023-04-29T09:18:56.311Z,24.53
2023-04-29T09:19:56.266Z,24.55
2023-04-29T09:20:56.274Z,24.49
2023-04-29T09:21:56.266Z,24.49
2023-04-29T09:22:56.272Z,24.52
2023-04-29T09:23:56.263Z,24.51
2023-04-29T09:24:56.242Z,24.51
2023-04-29T09:25:56.231Z,24.49
2023-04-29T09:26:56.237Z,24.51
2023-04-29T09:27:56.256Z,24.51
2023-04-29T09:28:56.209Z,24.49
2023-04-29T09:29:56.204Z,24.51
2023-04-29T09:30:56.200Z,24.51
2023-04-29T09:31:56.259Z,24.51
2023-04-29T09:32:56.223Z,24.49
2023-04-29T09:33:56.188Z,24.52
2023-04-29T09:34:56.220Z,24.51
2023-04-29T09:35:56.151Z,24.51
2023-04-29T09:36:56.125Z,24.51
2023-04-29T09:37:56.123Z,24.51
2023-04-29T09:38:56.102Z,24.53
2023-04-29T09:39:56.127Z,24.52
2023-04-29T09:40:59.392Z,24.49
2023-04-29T09:41:56.184Z,24.51
2023-04-29T09:42:56.266Z,24.51
2023-04-29T09:43:56.094Z,24.52
2023-04-29T09:44:56.101Z,24.51
2023-04-29T09:45:56.214Z,24.52
2023-04-29T09:46:56.117Z,24.55
2023-04-29T09:47:56.137Z,24.52
2023-04-29T09:48:56.079Z,24.52
2023-04-29T09:49:56.124Z,24.51
2023-04-29T09:50:56.046Z,24.52
2023-04-29T09:51:56.074Z,24.53
2023-04-29T09:52:56.071Z,24.51
2023-04-29T09:53:56.052Z,24.52
2023-04-29T09:54:56.061Z,24.53
2023-04-29T09:55:56.060Z,24.53
2023-04-29T09:56:56.035Z,24.53
2023-04-29T09:57:56.002Z,24.53
2023-04-29T09:58:56.300Z,24.55
2023-04-29T09:59:56.016Z,24.53
2023-04-29T10:00:56.019Z,24.55
2023-04-29T10:01:56.248Z,24.52
2023-04-29T10:02:56.119Z,24.53
2023-04-29T10:03:56.311Z,24.55
2023-04-29T10:04:56.159Z,24.52
2023-04-29T10:05:56.772Z,24.55
2023-04-29T10:06:55.993Z,24.56
2023-04-29T10:07:55.959Z,24.55
2023-04-29T10:08:56.284Z,24.56
2023-04-29T10:09:55.953Z,24.52
2023-04-29T10:10:55.927Z,24.55
2023-04-29T10:11:55.923Z,24.56
2023-04-29T10:12:55.933Z,24.53
2023-04-29T10:13:56.283Z,24.55
2023-04-29T10:14:56.061Z,24.55
2023-04-29T10:15:55.921Z,24.53
2023-04-29T10:16:55.916Z,24.55
2023-04-29T10:17:55.880Z,24.56
2023-04-29T10:18:56.342Z,24.53
2023-04-29T10:19:55.884Z,24.56
2023-04-29T10:20:55.849Z,24.58
2023-04-29T10:21:55.935Z,24.56
2023-04-29T10:22:55.836Z,24.56
2023-04-29T10:23:55.828Z,24.55
2023-04-29T10:24:55.865Z,24.56
2023-04-29T10:25:55.845Z,24.56
2023-04-29T10:26:55.840Z,24.55
2023-04-29T10:27:55.805Z,24.56
2023-04-29T10:28:56.283Z,24.58
2023-04-29T10:29:55.812Z,24.55
2023-04-29T10:30:55.866Z,24.59
2023-04-29T10:31:55.952Z,24.58
2023-04-29T10:32:55.814Z,24.56
2023-04-29T10:33:55.798Z,24.58
2023-04-29T10:34:55.737Z,24.58
2023-04-29T10:35:55.753Z,24.56
2023-04-29T10:36:55.738Z,24.59
2023-04-29T10:37:55.753Z,24.55
2023-04-29T10:38:55.731Z,24.55
2023-04-29T10:39:55.738Z,24.58
2023-04-29T10:40:55.708Z,24.58
2023-04-29T10:41:55.738Z,24.56
2023-04-29T10:42:55.713Z,24.58
2023-04-29T10:43:55.743Z,24.59
2023-04-29T10:44:55.672Z,24.55
2023-04-29T10:45:55.687Z,24.56
2023-04-29T10:46:55.722Z,24.58
2023-04-29T10:47:55.678Z,24.58
2023-04-29T10:48:55.837Z,24.58
2023-04-29T10:49:55.622Z,24.60
2023-04-29T10:50:55.684Z,24.56
2023-04-29T10:51:55.616Z,24.60
2023-04-29T10:52:55.624Z,24.59
2023-04-29T10:53:55.638Z,24.58
2023-04-29T10:54:55.662Z,24.60
2023-04-29T10:55:55.622Z,24.59
2023-04-29T10:56:55.568Z,24.60
2023-04-29T10:57:55.593Z,24.58
2023-04-29T10:58:55.568Z,24.62
2023-04-29T10:59:55.588Z,24.60
2023-04-29T11:00:55.620Z,24.59
2023-04-29T11:01:55.563Z,24.58
2023-04-29T11:02:55.688Z,24.62
2023-04-29T11:03:56.220Z,24.60
2023-04-29T11:04:55.881Z,24.59
2023-04-29T11:05:55.594Z,24.62
2023-04-29T11:06:55.547Z,24.59
2023-04-29T11:07:55.512Z,24.62
2023-04-29T11:08:55.537Z,24.62
2023-04-29T11:09:55.572Z,24.62
2023-04-29T11:10:55.525Z,24.63
2023-04-29T11:11:55.504Z,24.60
2023-04-29T11:12:55.516Z,24.62
2023-04-29T11:13:55.530Z,24.63
2023-04-29T11:14:55.701Z,24.62
2023-04-29T11:15:55.515Z,24.62
2023-04-29T11:16:55.558Z,24.62
2023-04-29T11:17:55.468Z,24.63
2023-04-29T11:18:55.835Z,24.62
2023-04-29T11:19:55.776Z,24.63
2023-04-29T11:20:55.534Z,24.62
2023-04-29T11:21:55.583Z,24.62
2023-04-29T11:22:55.615Z,24.62
2023-04-29T11:23:55.614Z,24.63
2023-04-29T11:24:56.005Z,24.64
2023-04-29T11:25:55.667Z,24.62
2023-04-29T11:26:55.746Z,24.62
2023-04-29T11:27:55.756Z,24.63
2023-04-29T11:28:55.774Z,24.63
2023-04-29T11:29:55.805Z,24.63
2023-04-29T11:30:55.848Z,24.63
2023-04-29T11:31:55.922Z,24.64
2023-04-29T11:32:56.003Z,24.62
2023-04-29T11:33:55.898Z,24.64
2023-04-29T11:34:56.866Z,24.63
2023-04-29T11:35:55.988Z,24.63
2023-04-29T11:36:55.991Z,24.64
2023-04-29T11:37:55.989Z,24.66
2023-04-29T11:38:56.123Z,24.64
2023-04-29T11:39:56.062Z,24.63
2023-04-29T11:40:56.075Z,24.63
2023-04-29T11:41:56.133Z,24.64
2023-04-29T11:42:56.161Z,24.63
2023-04-29T11:43:56.179Z,24.63
2023-04-29T11:44:56.208Z,24.64
2023-04-29T11:45:56.264Z,24.63
2023-04-29T11:46:56.245Z,24.63
2023-04-29T11:47:56.332Z,24.64
2023-04-29T11:48:56.299Z,24.63
2023-04-29T11:49:56.386Z,24.64
2023-04-29T11:50:56.357Z,24.63
2023-04-29T11:51:56.417Z,24.64
2023-04-29T11:52:56.451Z,24.64
2023-04-29T11:53:56.563Z,24.63
2023-04-29T11:54:56.463Z,24.66
2023-04-29T11:55:56.515Z,24.63
2023-04-29T11:56:56.563Z,24.62
2023-04-29T11:57:56.525Z,24.64
2023-04-29T11:58:56.596Z,24.66
2023-04-29T11:59:56.617Z,24.64
2023-04-29T12:00:56.667Z,24.66
2023-04-29T12:01:56.706Z,24.64
2023-04-29T12:02:56.858Z,24.66
2023-04-29T12:03:57.000Z,24.69
2023-04-29T12:04:57.230Z,24.66
2023-04-29T12:05:56.927Z,24.66
2023-04-29T12:06:56.872Z,24.66
2023-04-29T12:07:56.918Z,24.64
2023-04-29T12:08:56.949Z,24.66
2023-04-29T12:09:56.969Z,24.66
2023-04-29T12:10:57.823Z,24.67
2023-04-29T12:11:57.061Z,24.67
2023-04-29T12:12:57.090Z,24.69
2023-04-29T12:13:57.114Z,24.66
2023-04-29T12:14:57.176Z,24.66
2023-04-29T12:15:57.214Z,24.69
2023-04-29T12:16:57.275Z,24.67
2023-04-29T12:17:57.330Z,24.69
2023-04-29T12:18:57.329Z,24.67
2023-04-29T12:19:57.398Z,24.69
2023-04-29T12:20:57.449Z,24.69
2023-04-29T12:21:57.471Z,24.67
2023-04-29T12:22:57.522Z,24.69
2023-04-29T12:23:57.580Z,24.70
2023-04-29T12:24:57.569Z,24.67
2023-04-29T12:25:57.644Z,24.66
2023-04-29T12:26:57.688Z,24.69
2023-04-29T12:27:57.718Z,24.69
2023-04-29T12:28:57.810Z,24.70
2023-04-29T12:29:57.863Z,24.67
2023-04-29T12:30:57.920Z,24.70
2023-04-29T12:31:58.020Z,24.69
2023-04-29T12:32:58.048Z,24.70
2023-04-29T12:33:58.368Z,24.67
2023-04-29T12:34:58.106Z,24.70
2023-04-29T12:35:58.220Z,24.67
2023-04-29T12:36:58.277Z,24.70
2023-04-29T12:37:58.342Z,24.71
2023-04-29T12:38:58.347Z,24.67
2023-04-29T12:39:58.370Z,24.69
2023-04-29T12:40:58.426Z,24.71
2023-04-29T12:41:58.523Z,24.69
2023-04-29T12:42:58.561Z,24.69
2023-04-29T12:43:58.636Z,24.67
2023-04-29T12:44:58.768Z,24.71
2023-04-29T12:45:58.747Z,24.71
2023-04-29T12:46:58.834Z,24.70
2023-04-29T12:47:58.931Z,24.73
2023-04-29T12:48:58.922Z,24.70
2023-04-29T12:49:58.991Z,24.73
2023-04-29T12:50:59.026Z,24.71
2023-04-29T12:51:59.089Z,24.70
2023-04-29T12:52:59.150Z,24.73